createdAt,value
2019-02-02T00:02:27.922Z,25.57
2019-02-02T00:07:33.175Z,25.57
2019-02-02T00:12:39.356Z,25.57
2019-02-02T00:17:44.751Z,26.53
2019-02-02T00:22:50.318Z,26.57
2019-02-02T00:27:55.737Z,27.53
2019-02-02T00:33:01.918Z,26.10
2019-02-02T00:38:08.653Z,27.87
2019-02-02T00:43:13.813Z,27.33
2019-02-02T00:48:19.475Z,28.27
2019-02-02T00:53:24.844Z,26.90
2019-02-02T00:58:31.242Z,27.57
2019-02-02T01:03:37.380Z,26.33
2019-02-02T01:08:45.579Z,26.17
2019-02-02T01:13:51.974Z,23.97
2019-02-02T01:18:57.127Z,24.40
2019-02-02T01:24:02.493Z,25.03
2019-02-02T01:29:08.357Z,26.43
2019-02-02T01:34:13.541Z,25.80
2019-02-02T01:39:19.785Z,26.97
2019-02-02T01:44:24.937Z,25.03
2019-02-02T01:49:31.127Z,24.50
2019-02-02T01:54:38.381Z,24.17
2019-02-02T01:59:43.532Z,25.63
2019-02-02T02:04:49.506Z,27.37
2019-02-02T02:09:54.686Z,27.63
2019-02-02T02:14:59.931Z,25.40
2019-02-02T02:20:06.575Z,27.00
2019-02-02T02:25:21.404Z,25.93
2019-02-02T02:30:27.289Z,27.37
2019-02-02T02:35:32.553Z,26.13
2019-02-02T02:40:37.714Z,29.03
2019-02-02T02:45:44.382Z,28.27
2019-02-02T02:50:49.681Z,26.03
2019-02-02T02:55:54.990Z,26.70
2019-02-02T03:01:00.497Z,28.43
2019-02-02T03:06:06.991Z,27.07
2019-02-02T03:11:12.167Z,24.47
2019-02-02T03:16:17.374Z,26.73
2019-02-02T03:21:24.440Z,25.17
2019-02-02T03:26:29.717Z,28.47
2019-02-02T03:31:34.972Z,27.47
2019-02-02T03:36:40.573Z,28.60
2019-02-02T03:41:46.129Z,26.10
2019-02-02T03:46:51.584Z,26.63
2019-02-02T03:51:57.535Z,29.57
2019-02-02T03:57:02.702Z,31.30
2019-02-02T04:02:08.029Z,29.73
2019-02-02T04:07:13.198Z,27.93
2019-02-02T04:12:18.409Z,30.63
2019-02-02T04:17:23.570Z,30.90
2019-02-02T04:22:29.128Z,29.93
2019-02-02T04:27:34.281Z,30.90
2019-02-02T04:32:39.765Z,30.07
2019-02-02T04:37:45.099Z,30.80
2019-02-02T04:42:50.259Z,31.93
2019-02-02T04:47:55.398Z,30.87
2019-02-02T04:53:00.831Z,30.60
2019-02-02T04:58:06.400Z,31.87
2019-02-02T05:03:12.162Z,36.73
2019-02-02T05:08:17.302Z,36.23
2019-02-02T05:13:22.445Z,36.97
2019-02-02T05:18:27.949Z,38.60
2019-02-02T05:23:33.123Z,38.60
2019-02-02T05:28:38.274Z,37.20
2019-02-02T05:33:45.368Z,38.00
2019-02-02T05:38:50.646Z,38.63
2019-02-02T05:43:55.745Z,38.63
2019-02-02T05:49:00.925Z,41.57
2019-02-02T05:54:06.097Z,40.93
2019-02-02T05:59:11.455Z,44.10
2019-02-02T06:04:16.538Z,43.60
2019-02-02T06:09:23.864Z,41.70
2019-02-02T06:14:28.974Z,41.23
2019-02-02T06:19:34.134Z,46.00
2019-02-02T06:24:40.001Z,43.10
2019-02-02T06:29:45.519Z,41.30
2019-02-02T06:34:50.522Z,37.43
2019-02-02T06:39:55.595Z,35.83
2019-02-02T06:45:00.594Z,36.43
2019-02-02T06:50:07.422Z,38.47
2019-02-02T06:55:13.304Z,37.90
2019-02-02T07:00:20.391Z,38.17
2019-02-02T07:05:26.098Z,40.53
2019-02-02T07:10:31.978Z,42.43
2019-02-02T07:15:37.132Z,36.77
2019-02-02T07:20:43.274Z,40.77
2019-02-02T07:25:48.417Z,38.20
2019-02-02T07:30:53.635Z,41.33
2019-02-02T07:35:59.456Z,37.40
2019-02-02T07:41:04.879Z,37.80
2019-02-02T07:46:14.990Z,38.33
2019-02-02T07:51:17.215Z,38.03
2019-02-02T07:56:22.365Z,38.67
2019-02-02T08:01:27.516Z,39.07
2019-02-02T08:06:32.586Z,37.90
2019-02-02T08:11:37.727Z,40.17
2019-02-02T08:16:43.246Z,38.10
2019-02-02T08:21:49.292Z,37.50
2019-02-02T08:26:54.525Z,36.80
2019-02-02T08:31:59.703Z,39.90
2019-02-02T08:37:04.975Z,40.00
2019-02-02T08:42:10.720Z,41.37
2019-02-02T08:47:16.218Z,41.07
2019-02-02T08:52:21.710Z,42.53
2019-02-02T08:57:27.066Z,39.03
2019-02-02T09:02:32.284Z,40.37
2019-02-02T09:07:38.640Z,39.93
2019-02-02T09:12:43.795Z,40.07
2019-02-02T09:17:49.047Z,39.93
2019-02-02T09:23:03.893Z,40.63
2019-02-02T09:28:03.333Z,40.93
2019-02-02T09:33:08.929Z,41.10
2019-02-02T09:38:14.084Z,38.67
2019-02-02T09:43:19.494Z,40.53
2019-02-02T09:48:25.799Z,40.87
2019-02-02T09:53:31.474Z,38.33
2019-02-02T09:58:36.629Z,39.33
2019-02-02T10:03:41.775Z,40.90
2019-02-02T10:08:46.935Z,38.57
2019-02-02T10:13:52.353Z,41.97
2019-02-02T10:18:58.930Z,40.37
2019-02-02T10:24:04.771Z,41.30
2019-02-02T10:29:10.258Z,40.13
2019-02-02T10:34:16.040Z,41.40
2019-02-02T10:39:21.964Z,39.70
2019-02-02T10:44:27.154Z,40.80
2019-02-02T10:49:32.382Z,42.37
2019-02-02T10:54:37.915Z,41.13
2019-02-02T10:59:43.777Z,40.13
2019-02-02T11:04:48.853Z,41.57
2019-02-02T11:09:54.001Z,43.23
2019-02-02T11:15:00.182Z,41.37
2019-02-02T11:20:07.462Z,41.13
2019-02-02T11:25:14.118Z,39.93
2019-02-02T11:30:19.315Z,42.93
2019-02-02T11:35:24.798Z,40.73
2019-02-02T11:40:31.942Z,37.27
2019-02-02T11:45:37.080Z,39.87
2019-02-02T11:50:43.132Z,36.83
2019-02-02T11:55:49.047Z,37.43
2019-02-02T12:00:55.032Z,39.63
2019-02-02T12:06:00.162Z,36.17
2019-02-02T12:11:05.313Z,38.40
2019-02-02T12:16:10.400Z,38.40
2019-02-02T12:21:15.551Z,38.67
2019-02-02T12:26:21.169Z,39.53
2019-02-02T12:31:26.769Z,37.57
2019-02-02T12:36:31.956Z,39.43
2019-02-02T12:41:38.182Z,37.90
2019-02-02T12:46:43.548Z,40.30
2019-02-02T12:51:48.687Z,39.97
2019-02-02T12:56:54.323Z,41.83
2019-02-02T13:01:59.656Z,42.63
2019-02-02T13:07:05.024Z,42.20
2019-02-02T13:12:10.304Z,38.67
2019-02-02T13:17:15.789Z,41.37
2019-02-02T13:22:20.890Z,38.37
2019-02-02T13:27:26.034Z,38.97
2019-02-02T13:32:31.218Z,36.70
2019-02-02T13:37:36.289Z,35.87
2019-02-02T13:42:41.839Z,38.03
2019-02-02T13:47:47.143Z,38.53
2019-02-02T13:52:52.612Z,38.87
2019-02-02T13:57:57.883Z,37.57
2019-02-02T14:03:03.924Z,35.57
2019-02-02T14:08:09.427Z,35.70
2019-02-02T14:13:14.562Z,36.83
2019-02-02T14:18:20.152Z,35.47
2019-02-02T14:23:25.287Z,36.97
2019-02-02T14:28:30.435Z,36.27
2019-02-02T14:33:35.568Z,36.70
2019-02-02T14:38:40.710Z,37.43
2019-02-02T14:43:45.801Z,40.13
2019-02-02T14:48:50.948Z,38.10
2019-02-02T14:53:56.451Z,38.93
2019-02-02T14:59:03.731Z,39.87
2019-02-02T15:04:08.893Z,38.10
2019-02-02T15:09:15.000Z,39.83
2019-02-02T15:14:20.151Z,38.20
2019-02-02T15:19:25.313Z,37.07
2019-02-02T15:24:31.050Z,35.90
2019-02-02T15:29:36.533Z,37.10
2019-02-02T15:34:42.067Z,37.13
2019-02-02T15:39:48.115Z,37.10
2019-02-02T15:44:53.530Z,37.53
2019-02-02T15:49:58.827Z,38.33
2019-02-02T15:55:04.826Z,36.33
2019-02-02T16:00:14.482Z,36.27
2019-02-02T16:05:20.042Z,38.50
2019-02-02T16:10:26.984Z,38.17
2019-02-02T16:15:34.378Z,38.17
2019-02-02T16:20:43.692Z,39.77
2019-02-02T16:25:48.908Z,40.80
2019-02-02T16:30:55.118Z,42.10
2019-02-02T16:36:00.681Z,40.07
2019-02-02T16:41:05.823Z,41.23
2019-02-02T16:46:11.339Z,39.87
2019-02-02T16:51:17.368Z,41.60
2019-02-02T16:56:22.471Z,42.17
2019-02-02T17:01:27.643Z,43.80
2019-02-02T17:06:32.800Z,45.50
2019-02-02T17:11:37.969Z,46.90
2019-02-02T17:16:43.697Z,44.67
2019-02-02T17:21:48.827Z,44.60
2019-02-02T17:26:53.979Z,44.83
2019-02-02T17:31:59.151Z,43.13
2019-02-02T17:37:05.307Z,42.53
2019-02-02T17:42:10.457Z,41.67
2019-02-02T17:47:16.885Z,43.17
2019-02-02T17:52:22.032Z,43.27
2019-02-02T17:57:27.187Z,43.77
2019-02-02T18:02:33.383Z,46.93
2019-02-02T18:07:38.530Z,44.50
2019-02-02T18:12:43.821Z,44.10
2019-02-02T18:17:50.223Z,44.03
2019-02-02T18:22:55.228Z,46.40
2019-02-02T18:28:00.745Z,45.47
2019-02-02T18:33:06.806Z,41.43
2019-02-02T18:38:11.880Z,44.73
2019-02-02T18:43:17.356Z,45.07
2019-02-02T18:48:22.505Z,45.73
2019-02-02T18:53:27.575Z,44.07
2019-02-02T18:58:33.172Z,43.57
2019-02-02T19:03:38.660Z,43.90
2019-02-02T19:08:44.065Z,42.00
2019-02-02T19:13:49.281Z,41.20
2019-02-02T19:18:55.112Z,43.53
2019-02-02T19:24:00.467Z,40.03
2019-02-02T19:29:07.120Z,41.43
2019-02-02T19:34:13.190Z,44.00
2019-02-02T19:39:19.088Z,42.33
2019-02-02T19:44:24.231Z,42.57
2019-02-02T19:49:29.712Z,43.10
2019-02-02T19:54:34.715Z,44.97
2019-02-02T19:59:39.798Z,45.53
2019-02-02T20:04:44.880Z,69.37
2019-02-02T20:09:49.971Z,47.13
2019-02-02T20:14:55.139Z,46.17
2019-02-02T20:20:00.282Z,44.43
2019-02-02T20:25:06.312Z,43.93
2019-02-02T20:30:16.735Z,42.63
2019-02-02T20:35:21.842Z,42.47
2019-02-02T20:40:27.198Z,41.57
2019-02-02T20:45:34.111Z,39.30
2019-02-02T20:50:39.311Z,40.83
2019-02-02T20:55:46.226Z,40.20
2019-02-02T21:00:51.332Z,39.87
2019-02-02T21:05:56.484Z,39.40
2019-02-02T21:11:01.655Z,42.27
2019-02-02T21:16:06.937Z,41.20
2019-02-02T21:21:13.615Z,42.97
2019-02-02T21:26:19.231Z,43.37
2019-02-02T21:31:24.716Z,41.30
2019-02-02T21:36:29.855Z,42.87
2019-02-02T21:41:34.939Z,48.57
2019-02-02T21:46:40.014Z,47.03
2019-02-02T21:51:46.228Z,43.17
2019-02-02T21:56:51.376Z,40.27
2019-02-02T22:01:56.594Z,46.30
2019-02-02T22:07:02.211Z,48.60
2019-02-02T22:12:07.738Z,45.10
2019-02-02T22:17:14.047Z,51.07
2019-02-02T22:22:19.479Z,48.13
2019-02-02T22:27:24.633Z,45.53
2019-02-02T22:32:30.211Z,47.67
2019-02-02T22:37:35.486Z,40.77
2019-02-02T22:42:40.911Z,39.77
2019-02-02T22:47:46.814Z,41.50
2019-02-02T22:52:52.314Z,39.40
2019-02-02T22:57:57.480Z,37.07
2019-02-02T23:03:02.817Z,31.83
2019-02-02T23:08:20.158Z,29.63
2019-02-02T23:14:18.791Z,30.73
2019-02-02T23:19:24.409Z,31.40
2019-02-02T23:24:30.172Z,30.87
2019-02-02T23:29:35.243Z,33.57
2019-02-02T23:34:40.429Z,31.93
2019-02-02T23:39:45.493Z,32.67
2019-02-02T23:44:50.978Z,35.87
2019-02-02T23:49:57.843Z,37.03
2019-02-02T23:55:02.995Z,36.20
